sensor_id;sensor_type;location;lat;lon;timestamp;pressure;altitude;pressure_sealevel;temperature;humidity
66668;BME280;57205;51.438;-2.006;2023-05-10T00:01:16;100576.75;;;10.38;100.00
66668;BME280;57205;51.438;-2.006;2023-05-10T00:03:41;100575.38;;;10.30;100.00
66668;BME280;57205;51.438;-2.006;2023-05-10T00:06:07;100569.50;;;10.23;100.00
66668;BME280;57205;51.438;-2.006;2023-05-10T00:08:32;100570.00;;;10.20;100.00
66668;BME280;57205;51.438;-2.006;2023-05-10T00:10:58;100572.94;;;10.19;100.00
66668;BME280;57205;51.438;-2.006;2023-05-10T00:13:23;100570.53;;;10.17;100.00
66668;BME280;57205;51.438;-2.006;2023-05-10T00:15:48;100569.72;;;10.17;100.00
66668;BME280;57205;51.438;-2.006;2023-05-10T00:18:14;100580.47;;;10.22;100.00
66668;BME280;57205;51.438;-2.006;2023-05-10T00:20:39;100582.03;;;10.18;100.00
66668;BME280;57205;51.438;-2.006;2023-05-10T00:23:05;100582.81;;;10.18;100.00
66668;BME280;57205;51.438;-2.006;2023-05-10T00:25:30;100585.47;;;10.13;100.00
66668;BME280;57205;51.438;-2.006;2023-05-10T00:27:55;100587.88;;;10.15;100.00
66668;BME280;57205;51.438;-2.006;2023-05-10T00:30:22;100587.34;;;10.13;100.00
66668;BME280;57205;51.438;-2.006;2023-05-10T00:32:47;100582.25;;;10.11;100.00
66668;BME280;57205;51.438;-2.006;2023-05-10T00:35:15;100579.84;;;10.10;100.00
66668;BME280;57205;51.438;-2.006;2023-05-10T00:37:40;100586.03;;;10.10;100.00
66668;BME280;57205;51.438;-2.006;2023-05-10T00:40:06;100585.22;;;10.10;100.00
66668;BME280;57205;51.438;-2.006;2023-05-10T00:42:32;100587.31;;;10.08;100.00
66668;BME280;57205;51.438;-2.006;2023-05-10T00:44:57;100578.19;;;10.04;100.00
66668;BME280;57205;51.438;-2.006;2023-05-10T00:47:23;100575.25;;;10.00;100.00
66668;BME280;57205;51.438;-2.006;2023-05-10T00:49:49;100577.38;;;9.98;100.00
66668;BME280;57205;51.438;-2.006;2023-05-10T00:52:15;100572.56;;;9.95;100.00
66668;BME280;57205;51.438;-2.006;2023-05-10T00:54:41;100582.16;;;9.91;100.00
66668;BME280;57205;51.438;-2.006;2023-05-10T00:57:07;100582.16;;;9.91;100.00
66668;BME280;57205;51.438;-2.006;2023-05-10T00:59:32;100585.91;;;9.90;100.00
66668;BME280;57205;51.438;-2.006;2023-05-10T01:01:58;100584.81;;;9.86;100.00
66668;BME280;57205;51.438;-2.006;2023-05-10T01:04:23;100579.47;;;9.86;100.00
66668;BME280;57205;51.438;-2.006;2023-05-10T01:06:51;100583.44;;;9.83;100.00
66668;BME280;57205;51.438;-2.006;2023-05-10T01:09:16;100583.72;;;9.82;100.00
66668;BME280;57205;51.438;-2.006;2023-05-10T01:11:43;100577.28;;;9.83;100.00
66668;BME280;57205;51.438;-2.006;2023-05-10T01:14:09;100583.97;;;9.80;100.00
66668;BME280;57205;51.438;-2.006;2023-05-10T01:16:37;100586.66;;;9.80;100.00
66668;BME280;57205;51.438;-2.006;2023-05-10T01:19:12;100580.22;;;9.81;100.00
66668;BME280;57205;51.438;-2.006;2023-05-10T01:32:43;100600.28;;;9.79;100.00
66668;BME280;57205;51.438;-2.006;2023-05-10T01:35:29;100596.53;;;9.80;100.00
66668;BME280;57205;51.438;-2.006;2023-05-10T01:41:08;100608.59;;;9.88;100.00
66668;BME280;57205;51.438;-2.006;2023-05-10T01:43:31;100604.06;;;9.88;100.00
66668;BME280;57205;51.438;-2.006;2023-05-10T01:46:08;100612.09;;;9.93;100.00
66668;BME280;57205;51.438;-2.006;2023-05-10T01:48:47;100615.84;;;9.92;100.00
66668;BME280;57205;51.438;-2.006;2023-05-10T01:51:20;100607.84;;;9.92;100.00
66668;BME280;57205;51.438;-2.006;2023-05-10T01:53:47;100612.91;;;9.94;100.00
66668;BME280;57205;51.438;-2.006;2023-05-10T01:56:14;100615.03;;;9.92;100.00
66668;BME280;57205;51.438;-2.006;2023-05-10T01:58:43;100616.63;;;9.93;100.00
66668;BME280;57205;51.438;-2.006;2023-05-10T02:01:11;100610.50;;;9.92;100.00
66668;BME280;57205;51.438;-2.006;2023-05-10T02:03:38;100610.50;;;9.92;100.00
66668;BME280;57205;51.438;-2.006;2023-05-10T02:06:05;100617.16;;;9.90;100.00
66668;BME280;57205;51.438;-2.006;2023-05-10T02:08:32;100610.47;;;9.87;100.00
66668;BME280;57205;51.438;-2.006;2023-05-10T02:11:01;100613.94;;;9.82;100.00
66668;BME280;57205;51.438;-2.006;2023-05-10T02:13:28;100616.31;;;9.79;100.00
66668;BME280;57205;51.438;-2.006;2023-05-10T02:15:55;100613.31;;;9.75;100.00
66668;BME280;57205;51.438;-2.006;2023-05-10T02:18:23;100612.00;;;9.73;100.00
66668;BME280;57205;51.438;-2.006;2023-05-10T02:20:52;100609.03;;;9.69;100.00
66668;BME280;57205;51.438;-2.006;2023-05-10T02:23:20;100609.53;;;9.66;100.00
66668;BME280;57205;51.438;-2.006;2023-05-10T02:25:46;100608.22;;;9.64;100.00
66668;BME280;57205;51.438;-2.006;2023-05-10T02:28:14;100609.78;;;9.60;100.00
66668;BME280;57205;51.438;-2.006;2023-05-10T02:30:41;100605.53;;;9.64;100.00
66668;BME280;57205;51.438;-2.006;2023-05-10T02:33:07;100612.72;;;9.63;100.00
66668;BME280;57205;51.438;-2.006;2023-05-10T02:35:33;100610.88;;;9.64;100.00
66668;BME280;57205;51.438;-2.006;2023-05-10T02:38:00;100611.09;;;9.62;100.00
66668;BME280;57205;51.438;-2.006;2023-05-10T02:40:27;100605.47;;;9.59;100.00
66668;BME280;57205;51.438;-2.006;2023-05-10T02:42:54;100608.13;;;9.54;100.00
66668;BME280;57205;51.438;-2.006;2023-05-10T02:45:24;100611.63;;;9.54;100.00
66668;BME280;57205;51.438;-2.006;2023-05-10T02:47:51;100612.41;;;9.55;100.00
66668;BME280;57205;51.438;-2.006;2023-05-10T02:50:18;100621.75;;;9.52;100.00
66668;BME280;57205;51.438;-2.006;2023-05-10T02:52:50;100620.38;;;9.50;100.00
66668;BME280;57205;51.438;-2.006;2023-05-10T02:55:21;100623.31;;;9.48;100.00
66668;BME280;57205;51.438;-2.006;2023-05-10T02:58:05;100621.16;;;9.45;100.00
66668;BME280;57205;51.438;-2.006;2023-05-10T03:00:31;100626.50;;;9.45;100.00
66668;BME280;57205;51.438;-2.006;2023-05-10T03:02:56;100628.88;;;9.42;100.00
66668;BME280;57205;51.438;-2.006;2023-05-10T03:05:22;100633.38;;;9.36;100.00
66668;BME280;57205;51.438;-2.006;2023-05-10T03:07:48;100638.41;;;9.33;100.00
66668;BME280;57205;51.438;-2.006;2023-05-10T03:10:13;100633.59;;;9.30;100.00
66668;BME280;57205;51.438;-2.006;2023-05-10T03:13:11;100643.72;;;9.28;100.00
66668;BME280;57205;51.438;-2.006;2023-05-10T03:15:48;100648.50;;;9.26;100.00
66668;BME280;57205;51.438;-2.006;2023-05-10T03:20:43;100636.72;;;9.22;100.00
66668;BME280;57205;51.438;-2.006;2023-05-10T03:23:16;100643.72;;;9.28;100.00
66668;BME280;57205;51.438;-2.006;2023-05-10T03:25:46;100648.00;;;9.29;100.00
66668;BME280;57205;51.438;-2.006;2023-05-10T03:28:14;100648.78;;;9.29;100.00
66668;BME280;57205;51.438;-2.006;2023-05-10T03:30:41;100651.25;;;9.36;100.00
66668;BME280;57205;51.438;-2.006;2023-05-10T03:33:08;100647.53;;;9.37;100.00
66668;BME280;57205;51.438;-2.006;2023-05-10T03:35:33;100651.84;;;9.43;100.00
66668;BME280;57205;51.438;-2.006;2023-05-10T03:37:58;100655.38;;;9.48;100.00
66668;BME280;57205;51.438;-2.006;2023-05-10T03:40:25;100648.75;;;9.56;100.00
66668;BME280;57205;51.438;-2.006;2023-05-10T03:42:51;100647.72;;;9.62;100.00
66668;BME280;57205;51.438;-2.006;2023-05-10T03:45:16;100656.03;;;9.65;100.00
66668;BME280;57205;51.438;-2.006;2023-05-10T03:47:42;100647.22;;;9.70;100.00
66668;BME280;57205;51.438;-2.006;2023-05-10T03:50:07;100654.22;;;9.76;100.00
66668;BME280;57205;51.438;-2.006;2023-05-10T03:52:33;100659.56;;;9.76;100.00
66668;BME280;57205;51.438;-2.006;2023-05-10T03:54:58;100660.13;;;9.83;100.00
66668;BME280;57205;51.438;-2.006;2023-05-10T03:57:24;100662.06;;;9.88;100.00
66668;BME280;57205;51.438;-2.006;2023-05-10T03:59:49;100658.28;;;9.88;100.00
66668;BME280;57205;51.438;-2.006;2023-05-10T04:02:15;100656.47;;;9.94;100.00
66668;BME280;57205;51.438;-2.006;2023-05-10T04:04:40;100659.69;;;9.96;100.00
66668;BME280;57205;51.438;-2.006;2023-05-10T04:07:06;100662.88;;;9.93;100.00
66668;BME280;57205;51.438;-2.006;2023-05-10T04:09:31;100666.66;;;9.97;100.00
66668;BME280;57205;51.438;-2.006;2023-05-10T04:11:59;100666.13;;;10.00;100.00
66668;BME280;57205;51.438;-2.006;2023-05-10T04:14:25;100665.63;;;10.03;100.00
66668;BME280;57205;51.438;-2.006;2023-05-10T04:16:50;100664.59;;;10.09;100.00
66668;BME280;57205;51.438;-2.006;2023-05-10T04:19:16;100667.81;;;10.11;100.00
66668;BME280;57205;51.438;-2.006;2023-05-10T04:21:42;100675.56;;;10.13;100.00
66668;BME280;57205;51.438;-2.006;2023-05-10T04:24:07;100676.94;;;10.15;100.00
66668;BME280;57205;51.438;-2.006;2023-05-10T04:26:32;100677.22;;;10.19;100.00
66668;BME280;57205;51.438;-2.006;2023-05-10T04:28:58;100683.38;;;10.19;100.00
66668;BME280;57205;51.438;-2.006;2023-05-10T04:31:23;100683.94;;;10.21;100.00
66668;BME280;57205;51.438;-2.006;2023-05-10T04:33:48;100678.03;;;10.24;100.00
66668;BME280;57205;51.438;-2.006;2023-05-10T04:36:14;100679.66;;;10.25;100.00
66668;BME280;57205;51.438;-2.006;2023-05-10T04:38:40;100684.22;;;10.30;100.00
66668;BME280;57205;51.438;-2.006;2023-05-10T04:41:07;100683.97;;;10.31;100.00
66668;BME280;57205;51.438;-2.006;2023-05-10T04:43:33;100683.72;;;10.33;100.00
66668;BME280;57205;51.438;-2.006;2023-05-10T04:45:59;100679.97;;;10.34;100.00
66668;BME280;57205;51.438;-2.006;2023-05-10T04:48:24;100685.59;;;10.37;100.00
66668;BME280;57205;51.438;-2.006;2023-05-10T04:50:50;100678.38;;;10.38;100.00
66668;BME280;57205;51.438;-2.006;2023-05-10T04:53:15;100680.53;;;10.41;100.00
66668;BME280;57205;51.438;-2.006;2023-05-10T04:55:40;100677.59;;;10.42;100.00
66668;BME280;57205;51.438;-2.006;2023-05-10T04:58:06;100678.66;;;10.41;100.00
66668;BME280;57205;51.438;-2.006;2023-05-10T05:00:33;100680.56;;;10.46;100.00
66668;BME280;57205;51.438;-2.006;2023-05-10T05:02:59;100679.22;;;10.48;100.00
66668;BME280;57205;51.438;-2.006;2023-05-10T05:05:24;100682.97;;;10.47;100.00
66668;BME280;57205;51.438;-2.006;2023-05-10T05:07:50;100693.16;;;10.50;100.00
66668;BME280;57205;51.438;-2.006;2023-05-10T05:10:16;100700.94;;;10.57;100.00
66668;BME280;57205;51.438;-2.006;2023-05-10T05:12:41;100696.38;;;10.57;100.00
66668;BME280;57205;51.438;-2.006;2023-05-10T05:15:07;100703.38;;;10.63;100.00
66668;BME280;57205;51.438;-2.006;2023-05-10T05:17:34;100702.84;;;10.66;100.00
66668;BME280;57205;51.438;-2.006;2023-05-10T05:19:59;100703.91;;;10.70;100.00
66668;BME280;57205;51.438;-2.006;2023-05-10T05:22:25;100698.56;;;10.70;100.00
66668;BME280;57205;51.438;-2.006;2023-05-10T05:24:56;100703.91;;;10.70;100.00
66668;BME280;57205;51.438;-2.006;2023-05-10T05:27:23;100701.78;;;10.72;100.00
66668;BME280;57205;51.438;-2.006;2023-05-10T05:29:52;100701.53;;;10.74;100.00
66668;BME280;57205;51.438;-2.006;2023-05-10T05:32:18;100705.28;;;10.78;100.00
66668;BME280;57205;51.438;-2.006;2023-05-10T05:34:47;100693.81;;;10.82;100.00
66668;BME280;57205;51.438;-2.006;2023-05-10T05:37:16;100706.09;;;10.83;100.00
66668;BME280;57205;51.438;-2.006;2023-05-10T05:39:42;100708.81;;;10.89;100.00
66668;BME280;57205;51.438;-2.006;2023-05-10T05:42:08;100703.47;;;10.94;100.00
66668;BME280;57205;51.438;-2.006;2023-05-10T05:44:34;100706.69;;;11.01;100.00
66668;BME280;57205;51.438;-2.006;2023-05-10T05:46:59;100701.06;;;11.02;100.00
66668;BME280;57205;51.438;-2.006;2023-05-10T05:49:25;100697.06;;;11.00;100.00
66668;BME280;57205;51.438;-2.006;2023-05-10T05:52:10;100698.66;;;11.06;100.00
66668;BME280;57205;51.438;-2.006;2023-05-10T05:54:35;100698.97;;;11.39;100.00
66668;BME280;57205;51.438;-2.006;2023-05-10T05:57:01;100701.44;;;11.76;100.00
66668;BME280;57205;51.438;-2.006;2023-05-10T05:59:26;100697.59;;;12.17;100.00
66668;BME280;57205;51.438;-2.006;2023-05-10T06:01:52;100693.50;;;12.94;100.00
66668;BME280;57205;51.438;-2.006;2023-05-10T06:04:17;100692.06;;;13.79;100.00
66668;BME280;57205;51.438;-2.006;2023-05-10T06:06:43;100676.53;;;14.70;100.00
66668;BME280;57205;51.438;-2.006;2023-05-10T06:09:09;100647.75;;;15.58;100.00
66668;BME280;57205;51.438;-2.006;2023-05-10T06:11:34;100636.53;;;16.51;100.00
66668;BME280;57205;51.438;-2.006;2023-05-10T06:14:01;100627.88;;;17.21;100.00
66668;BME280;57205;51.438;-2.006;2023-05-10T06:16:27;100630.88;;;17.94;100.00
66668;BME280;57205;51.438;-2.006;2023-05-10T06:18:53;100630.75;;;18.47;100.00
66668;BME280;57205;51.438;-2.006;2023-05-10T06:21:18;100633.50;;;19.24;100.00
66668;BME280;57205;51.438;-2.006;2023-05-10T06:23:43;100626.34;;;19.91;100.00
66668;BME280;57205;51.438;-2.006;2023-05-10T06:26:09;100633.09;;;20.52;93.64
66668;BME280;57205;51.438;-2.006;2023-05-10T06:28:35;100638.78;;;20.59;88.00
66668;BME280;57205;51.438;-2.006;2023-05-10T06:31:03;100631.38;;;20.89;87.70
66668;BME280;57205;51.438;-2.006;2023-05-10T06:33:28;100635.94;;;21.38;85.01
66668;BME280;57205;51.438;-2.006;2023-05-10T06:35:54;100632.13;;;21.96;79.69
66668;BME280;57205;51.438;-2.006;2023-05-10T06:38:19;100640.41;;;22.23;77.23
66668;BME280;57205;51.438;-2.006;2023-05-10T06:40:45;100643.94;;;22.60;72.28
66668;BME280;57205;51.438;-2.006;2023-05-10T06:43:10;100640.69;;;22.82;71.06
66668;BME280;57205;51.438;-2.006;2023-05-10T06:45:35;100649.94;;;22.66;67.35
66668;BME280;57205;51.438;-2.006;2023-05-10T06:48:03;100650.09;;;22.57;68.44
66668;BME280;57205;51.438;-2.006;2023-05-10T06:50:28;100648.47;;;21.51;70.64
66668;BME280;57205;51.438;-2.006;2023-05-10T06:52:54;100657.28;;;20.45;79.70
66668;BME280;57205;51.438;-2.006;2023-05-10T06:55:20;100663.81;;;19.52;87.67
66668;BME280;57205;51.438;-2.006;2023-05-10T06:57:47;100662.38;;;18.69;98.63
66668;BME280;57205;51.438;-2.006;2023-05-10T07:00:13;100654.88;;;18.26;98.97
66668;BME280;57205;51.438;-2.006;2023-05-10T07:02:39;100656.41;;;18.02;100.00
66668;BME280;57205;51.438;-2.006;2023-05-10T07:05:05;100650.09;;;18.80;100.00
66668;BME280;57205;51.438;-2.006;2023-05-10T07:07:31;100651.41;;;19.97;95.50
66668;BME280;57205;51.438;-2.006;2023-05-10T07:09:56;100639.72;;;20.63;88.13
66668;BME280;57205;51.438;-2.006;2023-05-10T07:12:23;100641.31;;;21.26;83.58
66668;BME280;57205;51.438;-2.006;2023-05-10T07:14:48;100643.09;;;21.87;73.86
66668;BME280;57205;51.438;-2.006;2023-05-10T07:17:14;100637.22;;;22.58;66.82
66668;BME280;57205;51.438;-2.006;2023-05-10T07:19:40;100642.22;;;22.07;69.76
66668;BME280;57205;51.438;-2.006;2023-05-10T07:22:05;100650.69;;;21.16;77.05
66668;BME280;57205;51.438;-2.006;2023-05-10T07:24:32;100652.13;;;20.73;75.46
66668;BME280;57205;51.438;-2.006;2023-05-10T07:26:57;100645.56;;;20.15;81.63
66668;BME280;57205;51.438;-2.006;2023-05-10T07:29:22;100653.00;;;19.17;88.39
66668;BME280;57205;51.438;-2.006;2023-05-10T07:31:48;100644.69;;;19.22;91.43
66668;BME280;57205;51.438;-2.006;2023-05-10T07:34:13;100653.75;;;19.01;93.37
66668;BME280;57205;51.438;-2.006;2023-05-10T07:36:38;100648.69;;;18.91;94.22
66668;BME280;57205;51.438;-2.006;2023-05-10T07:39:04;100651.03;;;18.75;94.05
66668;BME280;57205;51.438;-2.006;2023-05-10T07:41:30;100651.94;;;18.45;98.83
66668;BME280;57205;51.438;-2.006;2023-05-10T07:44:05;100651.41;;;18.26;100.00
66668;BME280;57205;51.438;-2.006;2023-05-10T07:46:31;100647.63;;;17.96;100.00
66668;BME280;57205;51.438;-2.006;2023-05-10T07:48:57;100646.94;;;17.60;100.00
66668;BME280;57205;51.438;-2.006;2023-05-10T07:51:22;100646.03;;;17.42;100.00
66668;BME280;57205;51.438;-2.006;2023-05-10T07:53:47;100642.34;;;17.38;100.00
66668;BME280;57205;51.438;-2.006;2023-05-10T07:56:27;100641.03;;;17.36;100.00
66668;BME280;57205;51.438;-2.006;2023-05-10T07:58:55;100648.91;;;17.24;100.00
66668;BME280;57205;51.438;-2.006;2023-05-10T08:01:21;100649.41;;;17.26;100.00
66668;BME280;57205;51.438;-2.006;2023-05-10T08:03:47;100645.22;;;17.42;100.00
66668;BME280;57205;51.438;-2.006;2023-05-10T08:06:13;100646.81;;;17.65;100.00
66668;BME280;57205;51.438;-2.006;2023-05-10T08:08:38;100650.25;;;17.79;100.00
66668;BME280;57205;51.438;-2.006;2023-05-10T08:11:04;100651.75;;;17.63;100.00
66668;BME280;57205;51.438;-2.006;2023-05-10T08:13:29;100655.63;;;17.71;100.00
66668;BME280;57205;51.438;-2.006;2023-05-10T08:15:54;100665.25;;;17.41;100.00
66668;BME280;57205;51.438;-2.006;2023-05-10T08:18:20;100657.78;;;17.02;100.00
66668;BME280;57205;51.438;-2.006;2023-05-10T08:20:46;100659.66;;;16.80;100.00
66668;BME280;57205;51.438;-2.006;2023-05-10T08:23:14;100663.09;;;16.72;100.00
66668;BME280;57205;51.438;-2.006;2023-05-10T08:25:40;100658.50;;;16.58;100.00
66668;BME280;57205;51.438;-2.006;2023-05-10T08:28:05;100655.13;;;16.53;100.00
66668;BME280;57205;51.438;-2.006;2023-05-10T08:30:30;100665.28;;;16.42;100.00
66668;BME280;57205;51.438;-2.006;2023-05-10T08:32:56;100663.88;;;16.31;100.00
66668;BME280;57205;51.438;-2.006;2023-05-10T08:35:21;100666.91;;;16.16;100.00
66668;BME280;57205;51.438;-2.006;2023-05-10T08:37:47;100667.56;;;15.95;100.00
66668;BME280;57205;51.438;-2.006;2023-05-10T08:40:13;100668.88;;;15.84;100.00
66668;BME280;57205;51.438;-2.006;2023-05-10T08:42:43;100674.47;;;15.74;100.00
66668;BME280;57205;51.438;-2.006;2023-05-10T08:45:13;100675.22;;;15.74;100.00
66668;BME280;57205;51.438;-2.006;2023-05-10T08:47:41;100676.56;;;15.77;100.00
66668;BME280;57205;51.438;-2.006;2023-05-10T08:50:07;100678.47;;;15.90;100.00
66668;BME280;57205;51.438;-2.006;2023-05-10T08:52:35;100681.69;;;16.05;100.00
66668;BME280;57205;51.438;-2.006;2023-05-10T08:55:04;100671.31;;;16.53;100.00
66668;BME280;57205;51.438;-2.006;2023-05-10T08:57:29;100677.63;;;17.33;100.00
66668;BME280;57205;51.438;-2.006;2023-05-10T08:59:54;100672.91;;;17.61;100.00
66668;BME280;57205;51.438;-2.006;2023-05-10T09:02:20;100664.41;;;17.76;100.00
66668;BME280;57205;51.438;-2.006;2023-05-10T09:04:46;100666.78;;;17.78;100.00
66668;BME280;57205;51.438;-2.006;2023-05-10T09:07:12;100666.00;;;17.77;100.00
66668;BME280;57205;51.438;-2.006;2023-05-10T09:09:38;100663.19;;;17.60;100.00
66668;BME280;57205;51.438;-2.006;2023-05-10T09:12:04;100669.03;;;17.53;100.00
66668;BME280;57205;51.438;-2.006;2023-05-10T09:14:30;100665.75;;;17.65;100.00
66668;BME280;57205;51.438;-2.006;2023-05-10T09:16:56;100661.25;;;17.83;100.00
66668;BME280;57205;51.438;-2.006;2023-05-10T09:19:21;100671.88;;;18.10;100.00
66668;BME280;57205;51.438;-2.006;2023-05-10T09:21:46;100673.19;;;18.21;100.00
66668;BME280;57205;51.438;-2.006;2023-05-10T09:24:12;100667.66;;;18.34;100.00
66668;BME280;57205;51.438;-2.006;2023-05-10T09:26:46;100672.09;;;18.30;100.00
66668;BME280;57205;51.438;-2.006;2023-05-10T09:29:13;100672.03;;;18.52;100.00
66668;BME280;57205;51.438;-2.006;2023-05-10T09:31:49;100671.19;;;18.35;100.00
66668;BME280;57205;51.438;-2.006;2023-05-10T09:34:32;100669.66;;;18.12;100.00
66668;BME280;57205;51.438;-2.006;2023-05-10T09:37:01;100670.13;;;18.05;100.00
66668;BME280;57205;51.438;-2.006;2023-05-10T09:39:35;100679.72;;;17.89;100.00
66668;BME280;57205;51.438;-2.006;2023-05-10T09:42:02;100679.53;;;17.77;100.00
66668;BME280;57205;51.438;-2.006;2023-05-10T09:44:29;100677.94;;;17.54;100.00
66668;BME280;57205;51.438;-2.006;2023-05-10T09:46:54;100686.22;;;17.35;100.00
66668;BME280;57205;51.438;-2.006;2023-05-10T09:49:21;100682.59;;;17.40;100.00
66668;BME280;57205;51.438;-2.006;2023-05-10T09:51:46;100681.25;;;17.29;100.00
66668;BME280;57205;51.438;-2.006;2023-05-10T09:54:14;100672.94;;;17.25;100.00
66668;BME280;57205;51.438;-2.006;2023-05-10T09:56:40;100679.41;;;17.38;100.00
66668;BME280;57205;51.438;-2.006;2023-05-10T09:59:10;100678.06;;;17.49;100.00
66668;BME280;57205;51.438;-2.006;2023-05-10T10:01:37;100680.38;;;17.86;100.00
66668;BME280;57205;51.438;-2.006;2023-05-10T10:04:04;100679.97;;;18.01;100.00
66668;BME280;57205;51.438;-2.006;2023-05-10T10:06:35;100676.69;;;18.21;100.00
66668;BME280;57205;51.438;-2.006;2023-05-10T10:09:02;100672.53;;;18.55;100.00
66668;BME280;57205;51.438;-2.006;2023-05-10T10:11:28;100669.25;;;19.26;100.00
66668;BME280;57205;51.438;-2.006;2023-05-10T10:13:54;100668.19;;;19.99;96.78
66668;BME280;57205;51.438;-2.006;2023-05-10T10:16:20;100655.69;;;20.94;87.09
66668;BME280;57205;51.438;-2.006;2023-05-10T10:18:47;100661.63;;;21.49;83.63
66668;BME280;57205;51.438;-2.006;2023-05-10T10:21:13;100662.84;;;21.52;81.98
66668;BME280;57205;51.438;-2.006;2023-05-10T10:23:39;100659.88;;;21.12;80.29
66668;BME280;57205;51.438;-2.006;2023-05-10T10:26:04;100661.94;;;20.65;85.75
66668;BME280;57205;51.438;-2.006;2023-05-10T10:34:06;100669.69;;;19.62;90.97
66668;BME280;57205;51.438;-2.006;2023-05-10T10:36:46;100670.06;;;19.35;93.61
66668;BME280;57205;51.438;-2.006;2023-05-10T10:39:12;100666.88;;;19.33;95.50
66668;BME280;57205;51.438;-2.006;2023-05-10T10:41:53;100673.22;;;19.03;100.00
66668;BME280;57205;51.438;-2.006;2023-05-10T10:49:49;100671.13;;;18.66;100.00
66668;BME280;57205;51.438;-2.006;2023-05-10T10:52:24;100669.97;;;18.49;100.00
66668;BME280;57205;51.438;-2.006;2023-05-10T10:54:58;100673.09;;;18.34;100.00
66668;BME280;57205;51.438;-2.006;2023-05-10T10:57:25;100660.50;;;18.38;100.00
66668;BME280;57205;51.438;-2.006;2023-05-10T10:59:53;100670.03;;;18.27;100.00
66668;BME280;57205;51.438;-2.006;2023-05-10T11:05:37;100655.78;;;18.52;100.00
66668;BME280;57205;51.438;-2.006;2023-05-10T11:08:15;100660.63;;;18.73;98.26
66668;BME280;57205;51.438;-2.006;2023-05-10T11:16:23;100653.88;;;18.53;95.81
66668;BME280;57205;51.438;-2.006;2023-05-10T11:19:01;100664.81;;;18.39;96.73
66668;BME280;57205;51.438;-2.006;2023-05-10T11:21:28;100663.31;;;18.16;99.83
66668;BME280;57205;51.438;-2.006;2023-05-10T11:23:59;100663.72;;;18.01;100.00
66668;BME280;57205;51.438;-2.006;2023-05-10T11:26:30;100661.28;;;17.91;100.00
66668;BME280;57205;51.438;-2.006;2023-05-10T11:28:55;100653.88;;;18.05;100.00
66668;BME280;57205;51.438;-2.006;2023-05-10T11:31:22;100653.88;;;18.05;98.74
66668;BME280;57205;51.438;-2.006;2023-05-10T11:33:52;100645.88;;;18.00;98.66
66668;BME280;57205;51.438;-2.006;2023-05-10T11:38:51;100643.75;;;18.28;89.99
66668;BME280;57205;51.438;-2.006;2023-05-10T11:41:18;100636.16;;;18.47;91.02
66668;BME280;57205;51.438;-2.006;2023-05-10T11:43:47;100642.44;;;18.82;88.15
66668;BME280;57205;51.438;-2.006;2023-05-10T11:46:14;100640.06;;;19.06;84.75
66668;BME280;57205;51.438;-2.006;2023-05-10T11:48:40;100639.09;;;19.19;83.34
66668;BME280;57205;51.438;-2.006;2023-05-10T11:51:07;100637.81;;;19.42;81.03
66668;BME280;57205;51.438;-2.006;2023-05-10T11:53:33;100634.00;;;19.43;80.28
66668;BME280;57205;51.438;-2.006;2023-05-10T11:56:09;100636.50;;;19.65;80.85
66668;BME280;57205;51.438;-2.006;2023-05-10T11:58:36;100624.34;;;19.63;80.87
66668;BME280;57205;51.438;-2.006;2023-05-10T12:01:03;100636.81;;;19.55;82.50
66668;BME280;57205;51.438;-2.006;2023-05-10T12:03:30;100635.94;;;19.34;79.04
66668;BME280;57205;51.438;-2.006;2023-05-10T12:05:57;100636.69;;;19.26;80.63
66668;BME280;57205;51.438;-2.006;2023-05-10T12:08:25;100637.34;;;19.31;79.39
66668;BME280;57205;51.438;-2.006;2023-05-10T12:10:51;100632.09;;;19.35;79.98
66668;BME280;57205;51.438;-2.006;2023-05-10T12:13:17;100636.69;;;19.34;79.14
66668;BME280;57205;51.438;-2.006;2023-05-10T12:15:43;100633.50;;;19.50;79.57
66668;BME280;57205;51.438;-2.006;2023-05-10T12:18:10;100635.22;;;19.63;80.07
66668;BME280;57205;51.438;-2.006;2023-05-10T12:20:36;100627.16;;;19.83;74.94
66668;BME280;57205;51.438;-2.006;2023-05-10T12:23:02;100621.94;;;20.07;76.61
66668;BME280;57205;51.438;-2.006;2023-05-10T12:25:33;100622.09;;;20.11;76.50
66668;BME280;57205;51.438;-2.006;2023-05-10T12:28:02;100632.25;;;19.93;76.22
66668;BME280;57205;51.438;-2.006;2023-05-10T12:30:29;100621.59;;;19.80;75.75
66668;BME280;57205;51.438;-2.006;2023-05-10T12:33:00;100631.13;;;19.39;76.09
66668;BME280;57205;51.438;-2.006;2023-05-10T12:35:30;100635.44;;;19.32;81.03
66668;BME280;57205;51.438;-2.006;2023-05-10T12:37:56;100637.34;;;19.23;76.30
66668;BME280;57205;51.438;-2.006;2023-05-10T12:40:27;100633.66;;;19.10;78.26
66668;BME280;57205;51.438;-2.006;2023-05-10T12:42:55;100628.88;;;18.90;75.33
66668;BME280;57205;51.438;-2.006;2023-05-10T12:45:20;100633.38;;;18.95;79.10
66668;BME280;57205;51.438;-2.006;2023-05-10T12:47:45;100634.28;;;19.16;78.95
66668;BME280;57205;51.438;-2.006;2023-05-10T12:50:11;100634.78;;;19.18;75.73
66668;BME280;57205;51.438;-2.006;2023-05-10T12:52:36;100633.84;;;19.22;78.61
66668;BME280;57205;51.438;-2.006;2023-05-10T12:55:02;100639.28;;;18.97;73.63
66668;BME280;57205;51.438;-2.006;2023-05-10T12:57:28;100632.88;;;18.93;77.00
66668;BME280;57205;51.438;-2.006;2023-05-10T12:59:54;100634.34;;;18.99;75.93
66668;BME280;57205;51.438;-2.006;2023-05-10T13:02:20;100636.88;;;19.04;77.49
66668;BME280;57205;51.438;-2.006;2023-05-10T13:04:46;100635.25;;;19.03;78.88
66668;BME280;57205;51.438;-2.006;2023-05-10T13:07:12;100637.69;;;19.04;75.06
66668;BME280;57205;51.438;-2.006;2023-05-10T13:09:37;100638.28;;;19.01;79.59
66668;BME280;57205;51.438;-2.006;2023-05-10T13:12:03;100645.00;;;18.95;78.89
66668;BME280;57205;51.438;-2.006;2023-05-10T13:14:29;100650.59;;;18.90;79.17